sensor_id;sensor_type;location;lat;lon;timestamp;pressure;altitude;pressure_sealevel;temperature;humidity
46642;BME280;32370;41.864;-88.124;2022-09-13T00:01:54;98258.61;;;15.77;73.33
46642;BME280;32370;41.864;-88.124;2022-09-13T00:04:22;98259.65;;;15.72;73.70
46642;BME280;32370;41.864;-88.124;2022-09-13T00:06:50;98261.18;;;15.80;73.43
46642;BME280;32370;41.864;-88.124;2022-09-13T00:09:18;98259.05;;;15.30;75.63
46642;BME280;32370;41.864;-88.124;2022-09-13T00:11:45;98261.79;;;14.73;76.78
46642;BME280;32370;41.864;-88.124;2022-09-13T00:14:13;98264.15;;;15.18;77.15
46642;BME280;32370;41.864;-88.124;2022-09-13T00:16:41;98267.42;;;15.18;77.33
46642;BME280;32370;41.864;-88.124;2022-09-13T00:19:09;98267.58;;;14.94;77.22
46642;BME280;32370;41.864;-88.124;2022-09-13T00:21:36;98268.30;;;15.02;76.90
46642;BME280;32370;41.864;-88.124;2022-09-13T00:24:05;98267.21;;;15.27;76.65
46642;BME280;32370;41.864;-88.124;2022-09-13T00:26:33;98270.25;;;15.13;76.51
46642;BME280;32370;41.864;-88.124;2022-09-13T00:29:00;98271.00;;;15.44;75.97
46642;BME280;32370;41.864;-88.124;2022-09-13T00:31:29;98274.87;;;15.16;75.68
46642;BME280;32370;41.864;-88.124;2022-09-13T00:33:58;98278.37;;;15.31;75.65
46642;BME280;32370;41.864;-88.124;2022-09-13T00:36:27;98286.57;;;15.26;75.66
46642;BME280;32370;41.864;-88.124;2022-09-13T00:38:55;98285.48;;;14.65;76.86
46642;BME280;32370;41.864;-88.124;2022-09-13T00:41:23;98287.77;;;15.14;75.95
46642;BME280;32370;41.864;-88.124;2022-09-13T00:43:53;98289.60;;;15.01;76.05
46642;BME280;32370;41.864;-88.124;2022-09-13T00:46:26;98289.80;;;14.63;78.20
46642;BME280;32370;41.864;-88.124;2022-09-13T00:49:02;98291.27;;;15.06;77.50
46642;BME280;32370;41.864;-88.124;2022-09-13T00:51:32;98296.94;;;14.65;77.62
46642;BME280;32370;41.864;-88.124;2022-09-13T00:54:02;98301.82;;;14.91;77.59
46642;BME280;32370;41.864;-88.124;2022-09-13T00:56:33;98306.08;;;14.67;77.65
46642;BME280;32370;41.864;-88.124;2022-09-13T00:59:07;98311.28;;;14.67;77.46
46642;BME280;32370;41.864;-88.124;2022-09-13T01:01:42;98308.47;;;14.16;79.47
46642;BME280;32370;41.864;-88.124;2022-09-13T01:04:11;98315.01;;;13.80;81.48
46642;BME280;32370;41.864;-88.124;2022-09-13T01:06:41;98318.54;;;13.42;83.99
46642;BME280;32370;41.864;-88.124;2022-09-13T01:09:11;98322.75;;;13.16;86.59
46642;BME280;32370;41.864;-88.124;2022-09-13T01:11:43;98320.75;;;12.78;89.42
46642;BME280;32370;41.864;-88.124;2022-09-13T01:14:12;98328.87;;;12.74;89.73
46642;BME280;32370;41.864;-88.124;2022-09-13T01:16:40;98336.33;;;12.86;90.13
46642;BME280;32370;41.864;-88.124;2022-09-13T01:19:08;98337.57;;;12.78;90.73
46642;BME280;32370;41.864;-88.124;2022-09-13T01:22:04;98339.41;;;13.16;89.80
46642;BME280;32370;41.864;-88.124;2022-09-13T01:24:54;98339.26;;;13.79;87.14
46642;BME280;32370;41.864;-88.124;2022-09-13T01:27:34;98342.38;;;13.64;86.10
46642;BME280;32370;41.864;-88.124;2022-09-13T01:30:11;98342.88;;;13.55;86.15
46642;BME280;32370;41.864;-88.124;2022-09-13T01:32:53;98334.45;;;13.66;85.95
46642;BME280;32370;41.864;-88.124;2022-09-13T01:35:30;98336.16;;;13.58;85.91
46642;BME280;32370;41.864;-88.124;2022-09-13T01:38:10;98335.43;;;13.98;85.54
46642;BME280;32370;41.864;-88.124;2022-09-13T01:40:50;98332.13;;;13.89;85.28
46642;BME280;32370;41.864;-88.124;2022-09-13T01:43:32;98335.04;;;13.77;85.69
46642;BME280;32370;41.864;-88.124;2022-09-13T01:46:08;98332.06;;;13.29;89.04
46642;BME280;32370;41.864;-88.124;2022-09-13T01:48:51;98333.30;;;13.44;87.74
46642;BME280;32370;41.864;-88.124;2022-09-13T01:51:27;98330.93;;;13.24;89.47
46642;BME280;32370;41.864;-88.124;2022-09-13T01:54:10;98326.16;;;13.27;89.91
46642;BME280;32370;41.864;-88.124;2022-09-13T01:56:44;98328.53;;;13.44;89.15
46642;BME280;32370;41.864;-88.124;2022-09-13T01:59:21;98330.71;;;13.29;88.99
46642;BME280;32370;41.864;-88.124;2022-09-13T02:01:54;98330.31;;;13.73;88.34
46642;BME280;32370;41.864;-88.124;2022-09-13T02:04:26;98328.26;;;13.94;87.64
46642;BME280;32370;41.864;-88.124;2022-09-13T02:07:01;98331.86;;;13.78;88.21
46642;BME280;32370;41.864;-88.124;2022-09-13T02:09:35;98334.97;;;13.48;90.29
46642;BME280;32370;41.864;-88.124;2022-09-13T02:12:09;98339.91;;;13.52;90.31
46642;BME280;32370;41.864;-88.124;2022-09-13T02:14:43;98340.59;;;13.59;90.09
46642;BME280;32370;41.864;-88.124;2022-09-13T02:17:15;98344.69;;;13.73;89.73
46642;BME280;32370;41.864;-88.124;2022-09-13T02:19:49;98341.57;;;13.86;89.37
46642;BME280;32370;41.864;-88.124;2022-09-13T02:22:22;98339.05;;;13.44;91.02
46642;BME280;32370;41.864;-88.124;2022-09-13T02:24:55;98338.73;;;13.36;91.57
46642;BME280;32370;41.864;-88.124;2022-09-13T02:27:27;98331.40;;;13.25;92.09
46642;BME280;32370;41.864;-88.124;2022-09-13T02:30:00;98328.72;;;13.50;91.01
46642;BME280;32370;41.864;-88.124;2022-09-13T02:32:32;98326.63;;;13.44;90.57
46642;BME280;32370;41.864;-88.124;2022-09-13T02:35:06;98333.60;;;13.32;90.85
46642;BME280;32370;41.864;-88.124;2022-09-13T02:37:38;98336.18;;;12.73;92.93
46642;BME280;32370;41.864;-88.124;2022-09-13T02:40:12;98341.48;;;12.62;95.12
46642;BME280;32370;41.864;-88.124;2022-09-13T02:42:47;98343.54;;;12.46;96.60
46642;BME280;32370;41.864;-88.124;2022-09-13T02:45:21;98342.34;;;12.43;97.33
46642;BME280;32370;41.864;-88.124;2022-09-13T02:47:58;98341.35;;;13.09;95.90
46642;BME280;32370;41.864;-88.124;2022-09-13T02:50:36;98348.60;;;13.32;94.40
46642;BME280;32370;41.864;-88.124;2022-09-13T02:53:14;98344.65;;;13.06;94.40
46642;BME280;32370;41.864;-88.124;2022-09-13T02:55:50;98344.11;;;13.54;93.89
46642;BME280;32370;41.864;-88.124;2022-09-13T02:58:25;98338.57;;;13.60;93.92
46642;BME280;32370;41.864;-88.124;2022-09-13T03:00:56;98337.74;;;13.45;93.65
46642;BME280;32370;41.864;-88.124;2022-09-13T03:03:24;98342.42;;;13.46;93.75
46642;BME280;32370;41.864;-88.124;2022-09-13T03:05:52;98343.44;;;13.78;93.93
46642;BME280;32370;41.864;-88.124;2022-09-13T03:08:23;98340.65;;;13.53;94.35
46642;BME280;32370;41.864;-88.124;2022-09-13T03:10:58;98344.24;;;13.64;94.25
46642;BME280;32370;41.864;-88.124;2022-09-13T03:13:41;98340.26;;;13.68;94.15
46642;BME280;32370;41.864;-88.124;2022-09-13T03:16:25;98336.29;;;13.73;94.41
46642;BME280;32370;41.864;-88.124;2022-09-13T03:19:09;98334.03;;;13.50;94.63
46642;BME280;32370;41.864;-88.124;2022-09-13T03:21:54;98333.73;;;13.90;94.25
46642;BME280;32370;41.864;-88.124;2022-09-13T03:24:35;98333.21;;;14.11;93.30
46642;BME280;32370;41.864;-88.124;2022-09-13T03:27:15;98332.54;;;14.04;93.46
46642;BME280;32370;41.864;-88.124;2022-09-13T03:29:49;98333.06;;;14.07;93.39
46642;BME280;32370;41.864;-88.124;2022-09-13T03:32:26;98330.73;;;14.16;93.29
46642;BME280;32370;41.864;-88.124;2022-09-13T03:35:05;98327.20;;;13.91;93.58
46642;BME280;32370;41.864;-88.124;2022-09-13T03:37:43;98325.19;;;13.83;94.17
46642;BME280;32370;41.864;-88.124;2022-09-13T03:40:18;98331.07;;;14.01;94.87
46642;BME280;32370;41.864;-88.124;2022-09-13T03:42:53;98331.13;;;13.73;95.04
46642;BME280;32370;41.864;-88.124;2022-09-13T03:45:28;98330.06;;;14.33;94.99
46642;BME280;32370;41.864;-88.124;2022-09-13T03:47:58;98327.69;;;13.94;94.77
46642;BME280;32370;41.864;-88.124;2022-09-13T03:50:27;98324.86;;;13.73;94.72
46642;BME280;32370;41.864;-88.124;2022-09-13T03:52:59;98326.87;;;14.32;94.45
46642;BME280;32370;41.864;-88.124;2022-09-13T03:55:28;98328.65;;;14.36;94.44
46642;BME280;32370;41.864;-88.124;2022-09-13T03:57:57;98328.12;;;14.46;94.25
46642;BME280;32370;41.864;-88.124;2022-09-13T04:00:25;98330.63;;;14.24;94.18
46642;BME280;32370;41.864;-88.124;2022-09-13T04:02:53;98331.83;;;14.28;93.93
46642;BME280;32370;41.864;-88.124;2022-09-13T04:05:21;98331.91;;;14.30;94.02
46642;BME280;32370;41.864;-88.124;2022-09-13T04:07:49;98324.20;;;13.99;94.37
46642;BME280;32370;41.864;-88.124;2022-09-13T04:10:18;98319.92;;;14.22;94.85
46642;BME280;32370;41.864;-88.124;2022-09-13T04:12:46;98320.00;;;14.25;95.21
46642;BME280;32370;41.864;-88.124;2022-09-13T04:15:14;98324.60;;;14.53;94.31
46642;BME280;32370;41.864;-88.124;2022-09-13T04:17:41;98326.57;;;14.55;94.15
46642;BME280;32370;41.864;-88.124;2022-09-13T04:20:09;98328.65;;;14.52;94.44
46642;BME280;32370;41.864;-88.124;2022-09-13T04:22:37;98328.83;;;14.52;94.82
46642;BME280;32370;41.864;-88.124;2022-09-13T04:25:05;98329.47;;;14.38;94.45
46642;BME280;32370;41.864;-88.124;2022-09-13T04:27:35;98328.79;;;14.66;94.59
46642;BME280;32370;41.864;-88.124;2022-09-13T04:30:04;98323.58;;;14.78;94.41
46642;BME280;32370;41.864;-88.124;2022-09-13T04:32:32;98322.17;;;14.47;94.74
46642;BME280;32370;41.864;-88.124;2022-09-13T04:35:00;98324.59;;;14.84;94.68
46642;BME280;32370;41.864;-88.124;2022-09-13T04:37:28;98327.97;;;14.56;94.93
46642;BME280;32370;41.864;-88.124;2022-09-13T04:39:55;98324.84;;;14.61;95.04
46642;BME280;32370;41.864;-88.124;2022-09-13T04:42:24;98326.30;;;14.67;95.08
46642;BME280;32370;41.864;-88.124;2022-09-13T04:44:53;98323.59;;;14.65;95.32
46642;BME280;32370;41.864;-88.124;2022-09-13T04:47:21;98321.21;;;14.65;95.69
46642;BME280;32370;41.864;-88.124;2022-09-13T04:49:50;98323.55;;;14.48;95.85
46642;BME280;32370;41.864;-88.124;2022-09-13T04:52:18;98321.55;;;14.47;96.19
46642;BME280;32370;41.864;-88.124;2022-09-13T04:54:46;98324.94;;;14.74;96.29
46642;BME280;32370;41.864;-88.124;2022-09-13T04:57:14;98327.03;;;14.85;96.03
46642;BME280;32370;41.864;-88.124;2022-09-13T04:59:43;98328.01;;;14.94;95.66
46642;BME280;32370;41.864;-88.124;2022-09-13T05:02:12;98328.10;;;15.02;95.42
46642;BME280;32370;41.864;-88.124;2022-09-13T05:04:40;98327.17;;;15.02;95.53
46642;BME280;32370;41.864;-88.124;2022-09-13T05:07:07;98328.59;;;14.95;96.18
46642;BME280;32370;41.864;-88.124;2022-09-13T05:09:35;98325.94;;;14.97;96.16
46642;BME280;32370;41.864;-88.124;2022-09-13T05:12:03;98328.90;;;14.89;95.82
46642;BME280;32370;41.864;-88.124;2022-09-13T05:14:31;98321.77;;;14.53;96.83
46642;BME280;32370;41.864;-88.124;2022-09-13T05:17:00;98320.03;;;15.30;95.71
46642;BME280;32370;41.864;-88.124;2022-09-13T05:19:28;98314.88;;;15.17;96.22
46642;BME280;32370;41.864;-88.124;2022-09-13T05:21:55;98310.15;;;15.12;96.74
46642;BME280;32370;41.864;-88.124;2022-09-13T05:24:23;98307.74;;;15.21;96.36
46642;BME280;32370;41.864;-88.124;2022-09-13T05:26:51;98302.82;;;15.12;96.90
46642;BME280;32370;41.864;-88.124;2022-09-13T05:29:19;98299.02;;;14.83;97.69
46642;BME280;32370;41.864;-88.124;2022-09-13T05:31:46;98294.68;;;15.09;97.24
46642;BME280;32370;41.864;-88.124;2022-09-13T05:34:15;98296.34;;;15.09;97.20
46642;BME280;32370;41.864;-88.124;2022-09-13T05:36:44;98296.29;;;15.34;96.24
46642;BME280;32370;41.864;-88.124;2022-09-13T05:39:14;98298.03;;;14.92;97.21
46642;BME280;32370;41.864;-88.124;2022-09-13T05:41:42;98298.30;;;15.16;97.00
46642;BME280;32370;41.864;-88.124;2022-09-13T05:44:10;98303.50;;;14.85;97.96
46642;BME280;32370;41.864;-88.124;2022-09-13T05:46:38;98305.15;;;14.88;98.89
46642;BME280;32370;41.864;-88.124;2022-09-13T05:49:06;98309.62;;;14.81;99.76
46642;BME280;32370;41.864;-88.124;2022-09-13T05:51:34;98310.28;;;14.30;100.00
46642;BME280;32370;41.864;-88.124;2022-09-13T05:54:02;98307.75;;;14.65;100.00
46642;BME280;32370;41.864;-88.124;2022-09-13T05:56:30;98308.98;;;14.53;100.00
46642;BME280;32370;41.864;-88.124;2022-09-13T05:58:57;98304.87;;;14.89;100.00
46642;BME280;32370;41.864;-88.124;2022-09-13T06:01:27;98309.00;;;14.84;100.00
46642;BME280;32370;41.864;-88.124;2022-09-13T06:03:56;98310.80;;;14.90;100.00
46642;BME280;32370;41.864;-88.124;2022-09-13T06:06:25;98310.68;;;14.31;100.00
46642;BME280;32370;41.864;-88.124;2022-09-13T06:08:54;98307.71;;;14.96;100.00
46642;BME280;32370;41.864;-88.124;2022-09-13T06:11:23;98308.92;;;14.66;99.57
46642;BME280;32370;41.864;-88.124;2022-09-13T06:13:51;98307.96;;;14.49;99.89
46642;BME280;32370;41.864;-88.124;2022-09-13T06:16:19;98308.97;;;14.34;100.00
46642;BME280;32370;41.864;-88.124;2022-09-13T06:18:48;98309.20;;;14.81;100.00
46642;BME280;32370;41.864;-88.124;2022-09-13T06:21:18;98311.19;;;15.04;99.89
46642;BME280;32370;41.864;-88.124;2022-09-13T06:23:48;98313.24;;;14.55;99.82
46642;BME280;32370;41.864;-88.124;2022-09-13T06:26:18;98316.53;;;14.78;99.86
46642;BME280;32370;41.864;-88.124;2022-09-13T06:28:48;98318.41;;;14.43;99.61
46642;BME280;32370;41.864;-88.124;2022-09-13T06:31:17;98321.37;;;14.36;100.00
46642;BME280;32370;41.864;-88.124;2022-09-13T06:33:46;98320.26;;;14.57;100.00
46642;BME280;32370;41.864;-88.124;2022-09-13T06:36:17;98321.37;;;14.26;100.00
46642;BME280;32370;41.864;-88.124;2022-09-13T06:38:46;98320.48;;;13.98;100.00
46642;BME280;32370;41.864;-88.124;2022-09-13T06:41:16;98323.66;;;14.18;100.00
46642;BME280;32370;41.864;-88.124;2022-09-13T06:43:45;98323.18;;;14.05;100.00
46642;BME280;32370;41.864;-88.124;2022-09-13T06:46:14;98320.80;;;14.49;100.00
46642;BME280;32370;41.864;-88.124;2022-09-13T06:48:43;98317.05;;;14.98;100.00
46642;BME280;32370;41.864;-88.124;2022-09-13T06:51:13;98317.23;;;14.67;100.00
46642;BME280;32370;41.864;-88.124;2022-09-13T06:53:43;98318.76;;;15.17;100.00
46642;BME280;32370;41.864;-88.124;2022-09-13T06:56:13;98320.16;;;14.69;100.00
46642;BME280;32370;41.864;-88.124;2022-09-13T06:58:43;98320.67;;;14.85;100.00
46642;BME280;32370;41.864;-88.124;2022-09-13T07:01:13;98321.89;;;14.94;100.00
46642;BME280;32370;41.864;-88.124;2022-09-13T07:03:43;98320.92;;;14.96;99.53
46642;BME280;32370;41.864;-88.124;2022-09-13T07:06:13;98321.89;;;14.94;99.74
46642;BME280;32370;41.864;-88.124;2022-09-13T07:08:42;98325.50;;;15.01;99.71
46642;BME280;32370;41.864;-88.124;2022-09-13T07:11:13;98329.53;;;14.91;100.00
46642;BME280;32370;41.864;-88.124;2022-09-13T07:13:41;98330.41;;;14.83;100.00
46642;BME280;32370;41.864;-88.124;2022-09-13T07:16:10;98328.45;;;14.81;100.00
46642;BME280;32370;41.864;-88.124;2022-09-13T07:18:38;98333.10;;;14.86;100.00
46642;BME280;32370;41.864;-88.124;2022-09-13T07:21:08;98333.92;;;14.90;100.00
46642;BME280;32370;41.864;-88.124;2022-09-13T07:23:38;98333.36;;;14.72;100.00
46642;BME280;32370;41.864;-88.124;2022-09-13T07:26:06;98331.58;;;15.16;100.00
46642;BME280;32370;41.864;-88.124;2022-09-13T07:28:36;98330.44;;;15.27;99.88
46642;BME280;32370;41.864;-88.124;2022-09-13T07:31:06;98332.69;;;15.23;100.00
46642;BME280;32370;41.864;-88.124;2022-09-13T07:33:34;98331.94;;;14.82;99.99
46642;BME280;32370;41.864;-88.124;2022-09-13T07:36:03;98331.33;;;15.21;100.00
46642;BME280;32370;41.864;-88.124;2022-09-13T07:38:32;98330.66;;;14.66;100.00
46642;BME280;32370;41.864;-88.124;2022-09-13T07:41:02;98330.51;;;15.36;100.00
46642;BME280;32370;41.864;-88.124;2022-09-13T07:43:29;98329.81;;;15.23;100.00
46642;BME280;32370;41.864;-88.124;2022-09-13T07:45:58;98330.68;;;14.99;100.00
46642;BME280;32370;41.864;-88.124;2022-09-13T07:48:28;98331.91;;;15.01;100.00
46642;BME280;32370;41.864;-88.124;2022-09-13T07:51:01;98331.32;;;15.25;100.00
46642;BME280;32370;41.864;-88.124;2022-09-13T07:53:30;98325.74;;;14.91;100.00
46642;BME280;32370;41.864;-88.124;2022-09-13T07:56:01;98327.21;;;15.45;100.00
46642;BME280;32370;41.864;-88.124;2022-09-13T07:58:30;98329.64;;;15.34;100.00
46642;BME280;32370;41.864;-88.124;2022-09-13T08:01:04;98328.45;;;15.29;100.00
46642;BME280;32370;41.864;-88.124;2022-09-13T08:03:33;98327.97;;;14.93;100.00
46642;BME280;32370;41.864;-88.124;2022-09-13T08:06:02;98327.07;;;14.95;100.00
46642;BME280;32370;41.864;-88.124;2022-09-13T08:08:31;98331.45;;;14.85;100.00
46642;BME280;32370;41.864;-88.124;2022-09-13T08:11:01;98329.56;;;15.36;100.00
46642;BME280;32370;41.864;-88.124;2022-09-13T08:13:29;98330.99;;;15.27;100.00
46642;BME280;32370;41.864;-88.124;2022-09-13T08:16:00;98332.52;;;14.97;100.00
46642;BME280;32370;41.864;-88.124;2022-09-13T08:18:29;98333.31;;;14.72;100.00
46642;BME280;32370;41.864;-88.124;2022-09-13T08:20:57;98335.06;;;14.75;100.00
46642;BME280;32370;41.864;-88.124;2022-09-13T08:23:26;98333.77;;;14.44;100.00
46642;BME280;32370;41.864;-88.124;2022-09-13T08:25:53;98329.91;;;14.78;100.00
46642;BME280;32370;41.864;-88.124;2022-09-13T08:28:26;98324.83;;;14.68;100.00
46642;BME280;32370;41.864;-88.124;2022-09-13T08:30:54;98319.42;;;15.01;100.00
46642;BME280;32370;41.864;-88.124;2022-09-13T08:33:24;98319.12;;;14.80;100.00
46642;BME280;32370;41.864;-88.124;2022-09-13T08:35:52;98316.72;;;14.52;100.00
46642;BME280;32370;41.864;-88.124;2022-09-13T08:38:20;98315.30;;;14.73;100.00
46642;BME280;32370;41.864;-88.124;2022-09-13T08:40:52;98310.24;;;15.06;100.00
46642;BME280;32370;41.864;-88.124;2022-09-13T08:43:27;98311.46;;;14.92;100.00
46642;BME280;32370;41.864;-88.124;2022-09-13T08:46:01;98314.55;;;15.23;100.00
46642;BME280;32370;41.864;-88.124;2022-09-13T08:48:33;98319.99;;;14.70;100.00
46642;BME280;32370;41.864;-88.124;2022-09-13T08:51:04;98323.28;;;14.67;100.00
46642;BME280;32370;41.864;-88.124;2022-09-13T08:53:42;98325.87;;;15.10;100.00
46642;BME280;32370;41.864;-88.124;2022-09-13T08:56:14;98330.17;;;14.82;100.00
46642;BME280;32370;41.864;-88.124;2022-09-13T08:59:00;98333.52;;;14.74;100.00
46642;BME280;32370;41.864;-88.124;2022-09-13T09:01:40;98332.85;;;14.84;100.00
46642;BME280;32370;41.864;-88.124;2022-09-13T09:04:19;98331.12;;;15.06;100.00
46642;BME280;32370;41.864;-88.124;2022-09-13T09:07:00;98330.16;;;14.42;100.00
46642;BME280;32370;41.864;-88.124;2022-09-13T09:09:32;98332.40;;;14.86;100.00
46642;BME280;32370;41.864;-88.124;2022-09-13T09:12:10;98334.91;;;14.57;100.00
46642;BME280;32370;41.864;-88.124;2022-09-13T09:14:43;98335.03;;;14.45;100.00
46642;BME280;32370;41.864;-88.124;2022-09-13T09:17:18;98336.35;;;14.81;100.00
46642;BME280;32370;41.864;-88.124;2022-09-13T09:19:51;98341.81;;;14.32;100.00
46642;BME280;32370;41.864;-88.124;2022-09-13T09:22:33;98348.54;;;14.59;100.00
46642;BME280;32370;41.864;-88.124;2022-09-13T09:25:01;98349.94;;;14.47;100.00
46642;BME280;32370;41.864;-88.124;2022-09-13T09:27:30;98353.62;;;14.67;100.00
46642;BME280;32370;41.864;-88.124;2022-09-13T09:29:58;98352.91;;;14.13;100.00
46642;BME280;32370;41.864;-88.124;2022-09-13T09:33:24;98351.48;;;14.86;100.00
46642;BME280;32370;41.864;-88.124;2022-09-13T09:36:02;98352.04;;;14.48;100.00
46642;BME280;32370;41.864;-88.124;2022-09-13T09:38:36;98358.00;;;14.52;100.00
46642;BME280;32370;41.864;-88.124;2022-09-13T09:41:08;98356.48;;;14.48;100.00
46642;BME280;32370;41.864;-88.124;2022-09-13T09:43:45;98349.85;;;14.06;100.00
46642;BME280;32370;41.864;-88.124;2022-09-13T09:46:14;98345.92;;;14.34;100.00
46642;BME280;32370;41.864;-88.124;2022-09-13T09:48:47;98345.27;;;14.44;100.00
46642;BME280;32370;41.864;-88.124;2022-09-13T09:51:18;98347.38;;;14.11;100.00
46642;BME280;32370;41.864;-88.124;2022-09-13T09:53:51;98350.77;;;14.19;100.00
46642;BME280;32370;41.864;-88.124;2022-09-13T09:56:24;98351.97;;;14.45;100.00
46642;BME280;32370;41.864;-88.124;2022-09-13T09:58:53;98351.76;;;14.35;100.00
46642;BME280;32370;41.864;-88.124;2022-09-13T10:01:23;98351.37;;;14.66;100.00
46642;BME280;32370;41.864;-88.124;2022-09-13T10:03:56;98349.33;;;14.75;100.00
46642;BME280;32370;41.864;-88.124;2022-09-13T10:06:27;98347.57;;;14.59;100.00
46642;BME280;32370;41.864;-88.124;2022-09-13T10:08:59;98347.81;;;14.51;100.00
46642;BME280;32370;41.864;-88.124;2022-09-13T10:11:46;98350.27;;;14.45;100.00
46642;BME280;32370;41.864;-88.124;2022-09-13T10:14:37;98346.48;;;14.56;100.00
46642;BME280;32370;41.864;-88.124;2022-09-13T10:17:15;98348.28;;;14.33;100.00
46642;BME280;32370;41.864;-88.124;2022-09-13T10:19:53;98353.14;;;14.26;100.00
46642;BME280;32370;41.864;-88.124;2022-09-13T10:22:22;98352.56;;;14.29;100.00
46642;BME280;32370;41.864;-88.124;2022-09-13T10:24:49;98352.01;;;14.55;100.00
46642;BME280;32370;41.864;-88.124;2022-09-13T10:27:24;98355.97;;;14.52;100.00
46642;BME280;32370;41.864;-88.124;2022-09-13T10:29:55;98359.22;;;14.20;100.00
46642;BME280;32370;41.864;-88.124;2022-09-13T10:32:24;98359.15;;;14.02;100.00
46642;BME280;32370;41.864;-88.124;2022-09-13T10:34:53;98362.40;;;14.21;100.00
46642;BME280;32370;41.864;-88.124;2022-09-13T10:37:26;98364.97;;;14.84;100.00
46642;BME280;32370;41.864;-88.124;2022-09-13T10:40:00;98365.85;;;14.45;100.00
46642;BME280;32370;41.864;-88.124;2022-09-13T10:42:29;98368.05;;;14.48;100.00
46642;BME280;32370;41.864;-88.124;2022-09-13T10:44:58;98375.78;;;14.40;100.00
46642;BME280;32370;41.864;-88.124;2022-09-13T10:47:32;98382.89;;;14.27;100.00
46642;BME280;32370;41.864;-88.124;2022-09-13T10:50:16;98378.84;;;14.18;100.00
46642;BME280;32370;41.864;-88.124;2022-09-13T10:52:45;98375.92;;;14.23;100.00
46642;BME280;32370;41.864;-88.124;2022-09-13T10:55:26;98375.18;;;14.42;100.00
46642;BME280;32370;41.864;-88.124;2022-09-13T10:57:55;98377.30;;;14.28;100.00
46642;BME280;32370;41.864;-88.124;2022-09-13T11:00:43;98378.25;;;14.32;100.00
46642;BME280;32370;41.864;-88.124;2022-09-13T11:03:25;98382.32;;;14.54;100.00
46642;BME280;32370;41.864;-88.124;2022-09-13T11:06:04;98385.13;;;14.63;100.00
46642;BME280;32370;41.864;-88.124;2022-09-13T11:08:42;98383.75;;;14.48;100.00
46642;BME280;32370;41.864;-88.124;2022-09-13T11:11:17;98380.91;;;14.18;100.00
46642;BME280;32370;41.864;-88.124;2022-09-13T11:13:59;98384.61;;;14.87;100.00
46642;BME280;32370;41.864;-88.124;2022-09-13T11:16:40;98388.53;;;14.44;100.00
46642;BME280;32370;41.864;-88.124;2022-09-13T11:19:41;98388.21;;;14.64;100.00
46642;BME280;32370;41.864;-88.124;2022-09-13T11:22:35;98396.17;;;14.25;100.00
46642;BME280;32370;41.864;-88.124;2022-09-13T11:25:18;98394.38;;;13.99;100.00
46642;BME280;32370;41.864;-88.124;2022-09-13T11:27:58;98397.41;;;14.09;100.00
46642;BME280;32370;41.864;-88.124;2022-09-13T11:30:35;98404.09;;;14.16;100.00
46642;BME280;32370;41.864;-88.124;2022-09-13T11:33:21;98405.79;;;14.04;100.00
46642;BME280;32370;41.864;-88.124;2022-09-13T11:36:14;98409.36;;;14.81;100.00
46642;BME280;32370;41.864;-88.124;2022-09-13T11:38:57;98413.71;;;14.73;100.00
46642;BME280;32370;41.864;-88.124;2022-09-13T11:41:36;98418.66;;;14.40;100.00
46642;BME280;32370;41.864;-88.124;2022-09-13T11:44:25;98416.76;;;15.10;100.00
46642;BME280;32370;41.864;-88.124;2022-09-13T11:47:05;98419.38;;;15.21;100.00
46642;BME280;32370;41.864;-88.124;2022-09-13T11:49:49;98426.14;;;14.46;100.00
46642;BME280;32370;41.864;-88.124;2022-09-13T11:52:30;98426.26;;;15.53;100.00
46642;BME280;32370;41.864;-88.124;2022-09-13T11:55:10;98426.61;;;14.56;100.00
46642;BME280;32370;41.864;-88.124;2022-09-13T11:57:44;98425.67;;;14.70;100.00
46642;BME280;32370;41.864;-88.124;2022-09-13T12:00:20;98429.61;;;14.37;100.00
46642;BME280;32370;41.864;-88.124;2022-09-13T12:02:57;98429.11;;;14.30;100.00
46642;BME280;32370;41.864;-88.124;2022-09-13T12:05:33;98436.40;;;14.57;100.00
46642;BME280;32370;41.864;-88.124;2022-09-13T12:08:09;98436.91;;;15.36;100.00
46642;BME280;32370;41.864;-88.124;2022-09-13T12:10:45;98438.64;;;14.92;100.00
46642;BME280;32370;41.864;-88.124;2022-09-13T12:13:19;98446.52;;;14.89;100.00
46642;BME280;32370;41.864;-88.124;2022-09-13T12:15:51;98450.01;;;15.20;100.00
46642;BME280;32370;41.864;-88.124;2022-09-13T12:18:24;98455.08;;;14.99;100.00
46642;BME280;32370;41.864;-88.124;2022-09-13T12:20:54;98452.80;;;14.93;100.00
46642;BME280;32370;41.864;-88.124;2022-09-13T12:23:29;98456.09;;;14.99;100.00
46642;BME280;32370;41.864;-88.124;2022-09-13T12:26:02;98455.35;;;15.33;100.00
46642;BME280;32370;41.864;-88.124;2022-09-13T12:28:36;98448.42;;;15.82;100.00
46642;BME280;32370;41.864;-88.124;2022-09-13T12:31:10;98448.67;;;15.36;100.00
46642;BME280;32370;41.864;-88.124;2022-09-13T12:33:40;98459.48;;;15.41;100.00
46642;BME280;32370;41.864;-88.124;2022-09-13T12:36:37;98462.83;;;15.30;100.00
46642;BME280;32370;41.864;-88.124;2022-09-13T12:39:22;98465.78;;;15.22;100.00
46642;BME280;32370;41.864;-88.124;2022-09-13T12:42:09;98472.87;;;15.01;100.00
46642;BME280;32370;41.864;-88.124;2022-09-13T12:44:50;98473.58;;;15.58;100.00
46642;BME280;32370;41.864;-88.124;2022-09-13T12:48:53;98480.99;;;15.66;100.00
46642;BME280;32370;41.864;-88.124;2022-09-13T12:51:39;98479.67;;;14.95;100.00
46642;BME280;32370;41.864;-88.124;2022-09-13T12:54:43;98482.62;;;14.96;100.00
46642;BME280;32370;41.864;-88.124;2022-09-13T12:57:27;98486.56;;;14.90;100.00
46642;BME280;32370;41.864;-88.124;2022-09-13T13:00:11;98489.30;;;15.28;100.00
46642;BME280;32370;41.864;-88.124;2022-09-13T13:02:49;98492.74;;;15.28;100.00
46642;BME280;32370;41.864;-88.124;2022-09-13T13:05:25;98499.20;;;14.92;100.00
46642;BME280;32370;41.864;-88.124;2022-09-13T13:07:56;98499.06;;;15.02;100.00